createdAt,value
2023-05-04T00:00:26.583Z,14.82
2023-05-04T00:02:54.148Z,12.48
2023-05-04T00:05:22.012Z,13.82
2023-05-04T00:07:49.414Z,13.30
2023-05-04T00:10:17.149Z,13.27
2023-05-04T00:12:46.188Z,14.88
2023-05-04T00:15:13.735Z,13.73
2023-05-04T00:17:41.464Z,13.38
2023-05-04T00:20:09.389Z,15.70
2023-05-04T00:22:36.908Z,14.73
2023-05-04T00:25:06.413Z,13.82
2023-05-04T00:27:35.247Z,14.45
2023-05-04T00:30:04.069Z,14.10
2023-05-04T00:32:32.686Z,15.27
2023-05-04T00:35:00.477Z,15.70
2023-05-04T00:37:28.445Z,16.55
2023-05-04T00:39:55.930Z,17.10
2023-05-04T00:42:24.634Z,16.25
2023-05-04T00:44:51.994Z,18.45
2023-05-04T00:47:21.407Z,18.58
2023-05-04T00:49:48.994Z,16.92
2023-05-04T00:52:17.449Z,18.23
2023-05-04T00:54:47.593Z,17.85
2023-05-04T00:57:16.998Z,18.17
2023-05-04T00:59:44.470Z,17.92
2023-05-04T01:02:11.857Z,19.77
2023-05-04T01:04:39.650Z,19.58
2023-05-04T01:07:17.189Z,18.83
2023-05-04T01:09:53.278Z,22.30
2023-05-04T01:12:38.339Z,19.58
2023-05-04T01:15:06.677Z,20.45
2023-05-04T01:17:34.180Z,19.42
2023-05-04T01:20:02.127Z,20.02
2023-05-04T01:22:30.040Z,21.88
2023-05-04T01:24:57.835Z,20.38
2023-05-04T01:27:31.960Z,19.92
2023-05-04T01:30:06.645Z,19.85
2023-05-04T01:32:36.504Z,20.63
2023-05-04T01:35:04.798Z,19.63
2023-05-04T01:37:32.532Z,20.27
2023-05-04T01:40:00.198Z,21.17
2023-05-04T01:42:28.130Z,21.67
2023-05-04T01:44:56.391Z,23.02
2023-05-04T01:47:24.114Z,19.50
2023-05-04T01:49:51.897Z,20.48
2023-05-04T01:52:19.543Z,21.90
2023-05-04T01:54:47.189Z,22.08
2023-05-04T01:57:14.881Z,20.25
2023-05-04T01:59:42.887Z,21.58
2023-05-04T02:02:10.704Z,21.33
2023-05-04T02:04:38.682Z,21.50
2023-05-04T02:07:06.705Z,21.20
2023-05-04T02:09:35.340Z,22.48
2023-05-04T02:12:03.248Z,23.23
2023-05-04T02:14:31.082Z,22.08
2023-05-04T02:16:58.535Z,20.20
2023-05-04T02:19:26.790Z,20.40
2023-05-04T02:21:54.529Z,21.20
2023-05-04T02:24:22.764Z,21.60
2023-05-04T02:26:50.407Z,21.65
2023-05-04T02:29:17.906Z,20.80
2023-05-04T02:31:45.569Z,21.50
2023-05-04T02:34:15.284Z,21.23
2023-05-04T02:36:47.618Z,21.08
2023-05-04T02:39:15.500Z,20.80
2023-05-04T02:41:43.297Z,21.65
2023-05-04T02:44:11.253Z,21.38
2023-05-04T02:46:42.369Z,21.55
2023-05-04T02:49:10.314Z,22.42
2023-05-04T02:51:43.761Z,20.63
2023-05-04T02:54:14.244Z,21.80
2023-05-04T02:56:42.121Z,22.15
2023-05-04T02:59:09.896Z,22.30
2023-05-04T03:01:37.502Z,22.85
2023-05-04T03:04:07.042Z,21.88
2023-05-04T03:06:35.171Z,21.98
2023-05-04T03:09:03.065Z,23.02
2023-05-04T03:11:30.838Z,23.45
2023-05-04T03:13:58.778Z,24.25
2023-05-04T03:16:26.588Z,23.58
2023-05-04T03:18:54.368Z,24.80
2023-05-04T03:21:22.185Z,23.85
2023-05-04T03:23:50.093Z,24.02
2023-05-04T03:26:18.263Z,22.48
2023-05-04T03:28:46.890Z,24.17
2023-05-04T03:31:15.374Z,25.00
2023-05-04T03:33:43.702Z,25.27
2023-05-04T03:36:11.560Z,23.25
2023-05-04T03:38:42.184Z,24.63
2023-05-04T03:41:11.246Z,25.50
2023-05-04T03:43:39.881Z,24.27
2023-05-04T03:46:07.457Z,24.75
2023-05-04T03:48:35.047Z,24.95
2023-05-04T03:51:02.766Z,24.70
2023-05-04T03:53:30.464Z,24.95
2023-05-04T03:55:57.907Z,25.48
2023-05-04T03:58:25.534Z,26.33
2023-05-04T04:00:53.807Z,25.77
2023-05-04T04:03:21.559Z,23.70
2023-05-04T04:05:49.345Z,25.50
2023-05-04T04:08:16.804Z,24.70
2023-05-04T04:10:44.257Z,24.50
2023-05-04T04:13:11.763Z,25.52
2023-05-04T04:15:40.917Z,24.30
2023-05-04T04:18:09.002Z,28.85
2023-05-04T04:20:36.412Z,26.65
2023-05-04T04:23:04.179Z,26.20
2023-05-04T04:25:32.112Z,26.63
2023-05-04T04:28:00.118Z,26.27
2023-05-04T04:30:27.536Z,27.02
2023-05-04T04:32:57.295Z,29.48
2023-05-04T04:35:24.882Z,28.05
2023-05-04T04:37:52.350Z,28.63
2023-05-04T04:40:19.872Z,28.20
2023-05-04T04:42:47.571Z,27.98
2023-05-04T04:45:16.023Z,27.13
2023-05-04T04:47:47.365Z,26.95
2023-05-04T04:50:15.183Z,27.98
2023-05-04T04:52:43.074Z,28.45
2023-05-04T04:55:11.319Z,28.23
2023-05-04T04:57:39.031Z,28.02
2023-05-04T05:00:09.419Z,28.90
2023-05-04T05:02:37.865Z,30.10
2023-05-04T05:05:07.015Z,26.67
2023-05-04T05:07:34.704Z,26.88
2023-05-04T05:10:02.362Z,28.88
2023-05-04T05:12:29.903Z,28.23
2023-05-04T05:14:57.422Z,28.63
2023-05-04T05:17:26.245Z,27.90
2023-05-04T05:19:53.990Z,27.27
2023-05-04T05:22:21.629Z,28.42
2023-05-04T05:24:49.249Z,28.23
2023-05-04T05:27:17.000Z,26.27
2023-05-04T05:29:44.777Z,27.30
2023-05-04T05:32:12.565Z,28.02
2023-05-04T05:34:40.327Z,29.25
2023-05-04T05:37:07.983Z,27.15
2023-05-04T05:39:37.068Z,26.70
2023-05-04T05:42:05.924Z,28.58
2023-05-04T05:44:37.466Z,25.92
2023-05-04T05:47:05.881Z,25.38
2023-05-04T05:49:33.563Z,26.08
2023-05-04T05:52:01.188Z,26.25
2023-05-04T05:54:31.618Z,24.55
2023-05-04T05:56:59.520Z,25.63
2023-05-04T05:59:27.205Z,25.55
2023-05-04T06:01:55.054Z,24.58
2023-05-04T06:04:22.556Z,25.13
2023-05-04T06:06:50.289Z,22.90
2023-05-04T06:09:17.756Z,25.13
2023-05-04T06:11:45.708Z,23.48
2023-05-04T06:14:13.332Z,25.05
2023-05-04T06:16:41.007Z,24.25
2023-05-04T06:19:08.492Z,25.20
2023-05-04T06:21:36.597Z,23.73
2023-05-04T06:24:04.406Z,23.42
2023-05-04T06:26:32.492Z,24.15
2023-05-04T06:29:00.556Z,22.70
2023-05-04T06:31:28.271Z,22.50
2023-05-04T06:33:56.617Z,22.75
2023-05-04T06:36:28.211Z,23.10
2023-05-04T06:38:58.390Z,23.95
2023-05-04T06:41:28.369Z,22.67
2023-05-04T06:43:58.842Z,22.55
2023-05-04T06:46:27.293Z,22.52
2023-05-04T06:48:54.939Z,23.63
2023-05-04T06:51:23.157Z,22.70
2023-05-04T06:53:50.822Z,22.52
2023-05-04T06:56:18.418Z,22.75
2023-05-04T06:58:45.944Z,22.77
2023-05-04T07:01:14.532Z,21.27
2023-05-04T07:03:43.319Z,21.58
2023-05-04T07:06:11.728Z,21.45
2023-05-04T07:08:41.909Z,23.08
2023-05-04T07:11:10.357Z,19.97
2023-05-04T07:13:38.723Z,21.50
2023-05-04T07:16:09.427Z,21.77
2023-05-04T07:18:38.851Z,22.38
2023-05-04T07:21:27.056Z,21.00
2023-05-04T07:23:56.381Z,20.25
2023-05-04T07:26:23.844Z,19.30
2023-05-04T07:28:51.508Z,19.90
2023-05-04T07:31:19.193Z,20.02
2023-05-04T07:33:50.335Z,17.55
2023-05-04T07:36:18.184Z,20.25
2023-05-04T07:38:45.844Z,19.13
2023-05-04T07:41:13.368Z,18.95
2023-05-04T07:43:41.080Z,18.98
2023-05-04T07:46:09.490Z,18.83
2023-05-04T07:48:37.127Z,18.42
2023-05-04T07:51:04.813Z,18.67
2023-05-04T07:53:32.454Z,18.40
2023-05-04T07:56:08.646Z,19.95
2023-05-04T07:58:36.433Z,19.33
2023-05-04T08:01:04.351Z,20.25
2023-05-04T08:03:32.264Z,19.50
2023-05-04T08:05:59.787Z,18.77
2023-05-04T08:08:28.617Z,18.08
2023-05-04T08:11:04.753Z,18.40
2023-05-04T08:13:40.331Z,17.42
2023-05-04T08:16:09.750Z,18.25
2023-05-04T08:18:38.145Z,18.25
2023-05-04T08:21:05.943Z,18.70
2023-05-04T08:23:34.125Z,19.75
2023-05-04T08:26:03.330Z,17.05
2023-05-04T08:28:31.083Z,17.10
2023-05-04T08:30:58.842Z,18.25
2023-05-04T08:33:26.269Z,16.63
2023-05-04T08:35:53.723Z,16.27
2023-05-04T08:38:21.442Z,16.92
2023-05-04T08:40:50.635Z,18.15
2023-05-04T08:43:18.112Z,17.58
2023-05-04T08:45:45.936Z,17.88
2023-05-04T08:48:13.934Z,16.90
2023-05-04T08:50:42.410Z,18.67
2023-05-04T08:53:13.698Z,16.45
2023-05-04T08:55:44.064Z,17.55
2023-05-04T08:58:13.225Z,16.88
2023-05-04T09:00:43.571Z,18.15
2023-05-04T09:03:12.544Z,16.30
2023-05-04T09:05:42.825Z,16.25
2023-05-04T09:08:10.246Z,17.85
2023-05-04T09:10:37.888Z,17.45
2023-05-04T09:13:05.446Z,17.92
2023-05-04T09:15:33.089Z,17.23
2023-05-04T09:18:05.945Z,16.40
2023-05-04T09:20:50.208Z,17.27
2023-05-04T09:23:18.644Z,17.30
2023-05-04T09:25:51.872Z,17.35
2023-05-04T09:28:21.994Z,16.83
2023-05-04T09:30:49.521Z,17.48
2023-05-04T09:33:17.108Z,16.83
2023-05-04T09:35:44.605Z,17.23
2023-05-04T09:38:12.246Z,17.70
2023-05-04T09:40:41.496Z,17.33
2023-05-04T09:43:10.737Z,17.42
2023-05-04T09:45:42.221Z,16.85
2023-05-04T09:48:21.094Z,16.30
2023-05-04T09:50:59.242Z,16.52
2023-05-04T09:53:31.555Z,16.45
2023-05-04T09:56:33.297Z,17.23
2023-05-04T09:59:01.075Z,16.08
2023-05-04T10:01:32.016Z,16.27
2023-05-04T10:03:59.798Z,16.92
2023-05-04T10:06:30.202Z,17.42
2023-05-04T10:08:59.604Z,16.92
2023-05-04T10:11:27.499Z,16.23
2023-05-04T10:13:57.145Z,15.18
2023-05-04T10:16:33.786Z,15.63
2023-05-04T10:19:20.919Z,16.30
2023-05-04T10:22:03.810Z,16.42
2023-05-04T10:25:19.217Z,16.25
2023-05-04T10:27:52.019Z,14.85
2023-05-04T10:30:20.358Z,15.30
2023-05-04T10:32:55.598Z,15.68
2023-05-04T10:35:23.796Z,14.43
2023-05-04T10:37:55.304Z,14.88
2023-05-04T10:40:39.468Z,14.50
2023-05-04T10:43:09.331Z,14.02
2023-05-04T10:45:38.394Z,13.77
2023-05-04T10:48:08.365Z,14.50
2023-05-04T10:50:46.767Z,14.30
2023-05-04T10:53:16.098Z,13.45
2023-05-04T10:55:48.586Z,14.18
2023-05-04T10:58:19.184Z,13.90
2023-05-04T11:00:48.145Z,13.85
2023-05-04T11:03:15.857Z,14.45
2023-05-04T11:05:50.947Z,14.95
2023-05-04T11:08:25.604Z,13.80
2023-05-04T11:11:07.661Z,15.05
2023-05-04T11:13:40.893Z,13.63
2023-05-04T11:16:08.530Z,15.82
2023-05-04T11:18:37.554Z,15.68
2023-05-04T11:21:05.678Z,15.18
2023-05-04T11:23:33.994Z,14.82
2023-05-04T11:26:06.740Z,14.98
2023-05-04T11:28:36.429Z,15.02
2023-05-04T11:31:17.733Z,14.30
2023-05-04T11:33:47.116Z,17.00
2023-05-04T11:36:14.910Z,16.17
2023-05-04T11:38:43.584Z,15.70
2023-05-04T11:41:12.535Z,14.35
2023-05-04T11:43:42.750Z,15.38
2023-05-04T11:46:11.224Z,14.63
2023-05-04T11:48:40.922Z,15.25
2023-05-04T11:51:08.665Z,15.40
2023-05-04T11:53:41.097Z,14.88
2023-05-04T11:56:09.728Z,15.43
2023-05-04T11:58:37.717Z,15.88
2023-05-04T12:01:05.243Z,17.45
2023-05-04T12:06:05.900Z,15.80
2023-05-04T12:08:42.191Z,16.85
2023-05-04T12:11:29.223Z,17.38
2023-05-04T12:14:10.746Z,16.70
2023-05-04T12:16:38.942Z,17.10
2023-05-04T12:19:12.722Z,17.30
2023-05-04T12:21:52.051Z,17.33
2023-05-04T12:24:24.024Z,18.42
2023-05-04T12:26:51.880Z,18.15
2023-05-04T12:29:19.338Z,18.63
2023-05-04T12:31:47.145Z,18.73
2023-05-04T12:34:14.556Z,18.02
2023-05-04T12:36:42.010Z,17.60
2023-05-04T12:39:09.745Z,19.83
2023-05-04T12:41:37.394Z,19.00
2023-05-04T12:44:04.928Z,18.80
2023-05-04T12:46:32.540Z,19.70
2023-05-04T12:49:00.042Z,20.08
2023-05-04T12:51:27.476Z,19.50
2023-05-04T12:53:55.983Z,19.23
2023-05-04T12:56:23.539Z,19.60
2023-05-04T12:58:51.222Z,19.20
2023-05-04T13:01:18.768Z,19.27
2023-05-04T13:03:46.444Z,19.13
2023-05-04T13:06:14.175Z,21.42
2023-05-04T13:08:41.545Z,19.65
2023-05-04T13:11:09.028Z,19.95
2023-05-04T13:13:37.053Z,22.27
2023-05-04T13:16:05.901Z,20.40
2023-05-04T13:18:33.556Z,21.52
2023-05-04T13:21:01.146Z,20.08
2023-05-04T13:23:28.862Z,19.23
2023-05-04T13:25:57.264Z,20.05
2023-05-04T13:28:30.669Z,20.85
2023-05-04T13:30:58.179Z,21.67
2023-05-04T13:33:29.918Z,22.00
2023-05-04T13:35:58.841Z,21.98
2023-05-04T13:38:27.311Z,21.48
2023-05-04T13:40:55.330Z,20.67
2023-05-04T13:43:23.100Z,21.50
2023-05-04T13:45:51.301Z,23.15
2023-05-04T13:48:18.992Z,22.02
2023-05-04T13:50:46.891Z,21.83
2023-05-04T13:53:14.808Z,23.15
2023-05-04T13:55:42.656Z,24.02
2023-05-04T13:58:11.094Z,22.55
2023-05-04T14:00:38.732Z,22.80
2023-05-04T14:03:06.613Z,21.27
2023-05-04T14:05:35.589Z,22.58
2023-05-04T14:08:03.548Z,21.70
2023-05-04T14:10:31.553Z,21.75
2023-05-04T14:12:59.431Z,21.73
2023-05-04T14:15:27.600Z,21.45
2023-05-04T14:17:55.333Z,22.45
2023-05-04T14:20:23.318Z,23.48
2023-05-04T14:22:51.503Z,21.83
2023-05-04T14:25:19.096Z,22.83
2023-05-04T14:27:46.771Z,22.80
2023-05-04T14:30:14.967Z,23.25
2023-05-04T14:32:42.855Z,23.23
2023-05-04T14:35:11.231Z,22.23
2023-05-04T14:37:39.984Z,22.70
2023-05-04T14:40:15.230Z,23.65
2023-05-04T14:42:42.969Z,21.30
2023-05-04T14:45:11.177Z,21.75
2023-05-04T14:47:38.741Z,22.65
2023-05-04T14:50:07.397Z,21.88
2023-05-04T14:52:35.182Z,21.23
2023-05-04T14:55:04.575Z,21.20
2023-05-04T14:57:32.389Z,19.35
2023-05-04T15:00:00.297Z,20.08
2023-05-04T15:02:27.751Z,20.08
2023-05-04T15:04:55.351Z,20.60
2023-05-04T15:07:22.815Z,19.90
2023-05-04T15:09:50.470Z,19.75
2023-05-04T15:12:18.671Z,11.95
2023-05-04T15:14:46.718Z,10.30
2023-05-04T15:17:14.944Z,7.25
2023-05-04T15:19:43.563Z,8.10
2023-05-04T15:22:11.401Z,8.77
2023-05-04T15:24:38.906Z,7.90
2023-05-04T15:27:06.592Z,7.32
2023-05-04T15:29:34.145Z,9.02
2023-05-04T15:32:01.689Z,7.47
2023-05-04T15:34:29.395Z,7.93
2023-05-04T15:36:57.026Z,7.32
2023-05-04T15:39:24.732Z,6.65
2023-05-04T15:41:52.186Z,6.88
2023-05-04T15:44:21.026Z,7.72
2023-05-04T15:46:48.985Z,7.43
2023-05-04T15:49:16.643Z,7.72
2023-05-04T15:51:44.150Z,6.80
2023-05-04T15:54:11.582Z,7.03
2023-05-04T15:56:39.073Z,6.63
2023-05-04T15:59:07.310Z,7.25
2023-05-04T16:01:34.902Z,7.45
2023-05-04T16:04:02.679Z,6.25
2023-05-04T16:06:31.326Z,7.53
2023-05-04T16:08:58.845Z,6.47
2023-05-04T16:11:26.553Z,6.35
2023-05-04T16:13:54.555Z,7.32
2023-05-04T16:16:22.194Z,6.30
2023-05-04T16:18:49.628Z,5.40
2023-05-04T16:21:17.086Z,5.72
2023-05-04T16:23:44.542Z,6.50
2023-05-04T16:26:12.142Z,6.22
2023-05-04T16:28:41.548Z,4.43
2023-05-04T16:31:11.682Z,4.18
2023-05-04T16:36:08.990Z,4.85
2023-05-04T16:38:36.446Z,6.05
2023-05-04T16:41:03.916Z,5.05
2023-05-04T16:43:31.920Z,4.68
2023-05-04T16:45:59.597Z,4.20
2023-05-04T16:48:27.198Z,4.13
2023-05-04T16:50:54.571Z,4.15
2023-05-04T16:53:22.286Z,3.70
2023-05-04T16:55:50.915Z,4.28
2023-05-04T16:58:18.490Z,3.58
2023-05-04T17:00:46.254Z,3.45
2023-05-04T17:03:14.056Z,3.50
2023-05-04T17:05:41.820Z,3.78
2023-05-04T17:08:13.743Z,3.85
2023-05-04T17:10:41.226Z,3.60
2023-05-04T17:13:08.832Z,4.03
2023-05-04T17:15:36.263Z,3.65
2023-05-04T17:18:03.792Z,3.17
2023-05-04T17:20:31.918Z,2.80
2023-05-04T17:22:59.995Z,3.45
2023-05-04T17:25:27.694Z,2.90
2023-05-04T17:27:55.437Z,3.20
2023-05-04T17:30:23.911Z,3.70
2023-05-04T17:32:52.423Z,3.22
2023-05-04T17:35:25.341Z,3.25
2023-05-04T17:37:58.000Z,2.75
2023-05-04T17:40:28.110Z,2.88
2023-05-04T17:42:56.843Z,2.60
2023-05-04T17:45:24.587Z,3.25
2023-05-04T17:47:52.259Z,3.42
2023-05-04T17:50:21.147Z,3.20
2023-05-04T17:52:55.666Z,3.25
2023-05-04T17:55:24.616Z,3.58
2023-05-04T17:57:54.241Z,3.58
2023-05-04T18:00:22.224Z,3.50
2023-05-04T18:02:49.795Z,4.82
2023-05-04T18:05:17.520Z,4.95
2023-05-04T18:07:45.252Z,6.30
2023-05-04T18:10:13.148Z,4.95
2023-05-04T18:12:43.783Z,4.70
2023-05-04T18:15:12.191Z,3.80
2023-05-04T18:17:40.006Z,4.82
2023-05-04T18:20:08.987Z,4.40
2023-05-04T18:22:37.002Z,5.70
2023-05-04T18:25:05.132Z,6.10
2023-05-04T18:27:33.820Z,4.78
2023-05-04T18:30:05.328Z,4.93
2023-05-04T18:32:35.077Z,4.70
2023-05-04T18:35:03.445Z,5.40
2023-05-04T18:37:33.155Z,5.32
2023-05-04T18:40:00.661Z,5.22
2023-05-04T18:42:28.457Z,5.97
2023-05-04T18:44:56.203Z,7.30
2023-05-04T18:47:24.141Z,5.75
2023-05-04T18:49:53.143Z,6.00
2023-05-04T18:52:21.548Z,6.15
2023-05-04T18:54:49.629Z,4.85
2023-05-04T18:57:17.492Z,5.47
2023-05-04T18:59:45.167Z,6.07
2023-05-04T19:02:12.858Z,6.40
2023-05-04T19:04:40.487Z,6.20
2023-05-04T19:07:09.761Z,7.30
2023-05-04T19:09:37.828Z,6.38
2023-05-04T19:12:06.748Z,6.70
2023-05-04T19:14:34.202Z,6.05
2023-05-04T19:17:02.236Z,7.10
2023-05-04T19:19:30.564Z,7.28
2023-05-04T19:21:58.596Z,9.25
2023-05-04T19:24:26.080Z,7.20
2023-05-04T19:26:53.582Z,6.97
2023-05-04T19:29:21.079Z,7.82
2023-05-04T19:31:48.662Z,7.53
2023-05-04T19:34:17.652Z,6.88
2023-05-04T19:36:45.645Z,8.02
2023-05-04T19:39:13.347Z,7.88
2023-05-04T19:41:40.838Z,8.30
2023-05-04T19:44:10.089Z,9.23
2023-05-04T19:46:37.912Z,8.27
2023-05-04T19:49:05.588Z,8.63
2023-05-04T19:51:33.393Z,7.63
2023-05-04T19:54:00.915Z,7.57
2023-05-04T19:56:28.415Z,7.85
2023-05-04T19:58:55.863Z,8.55
2023-05-04T20:01:23.336Z,7.93
2023-05-04T20:03:50.799Z,8.30
2023-05-04T20:06:18.354Z,9.50
2023-05-04T20:08:45.949Z,9.02
2023-05-04T20:11:13.875Z,9.90
2023-05-04T20:13:43.069Z,9.52
2023-05-04T20:16:10.967Z,10.82
2023-05-04T20:18:38.815Z,10.13
2023-05-04T20:21:06.572Z,11.00
2023-05-04T20:23:36.508Z,13.82
2023-05-04T20:26:05.948Z,13.10
2023-05-04T20:28:34.031Z,10.93
2023-05-04T20:31:01.545Z,10.77
2023-05-04T20:33:29.046Z,12.13
2023-05-04T20:35:56.651Z,10.45
2023-05-04T20:38:24.389Z,10.75
2023-05-04T20:40:52.625Z,10.18
2023-05-04T20:43:20.403Z,10.20
2023-05-04T20:45:48.163Z,9.60
2023-05-04T20:48:15.675Z,10.77
2023-05-04T20:50:43.267Z,9.88
2023-05-04T20:53:10.837Z,9.63
2023-05-04T20:55:40.456Z,10.20
2023-05-04T20:58:08.484Z,8.52
2023-05-04T21:00:36.382Z,9.02
2023-05-04T21:03:04.177Z,8.73
2023-05-04T21:05:31.994Z,9.05
2023-05-04T21:08:01.106Z,8.65
2023-05-04T21:10:32.834Z,8.68
2023-05-04T21:13:04.227Z,8.52
2023-05-04T21:15:32.261Z,8.27
2023-05-04T21:17:59.722Z,7.93
2023-05-04T21:20:27.243Z,7.63
2023-05-04T21:22:54.714Z,7.10
2023-05-04T21:25:22.933Z,8.23
2023-05-04T21:27:50.561Z,7.57
2023-05-04T21:30:18.058Z,8.55
2023-05-04T21:32:46.115Z,8.15
2023-05-04T21:35:14.881Z,8.23
2023-05-04T21:37:42.701Z,7.57
2023-05-04T21:40:10.328Z,6.82
2023-05-04T21:42:37.890Z,7.28
2023-05-04T21:45:06.325Z,6.68
2023-05-04T21:47:34.191Z,7.45
2023-05-04T21:50:02.122Z,7.32
2023-05-04T21:52:29.524Z,6.63
2023-05-04T21:54:57.040Z,7.47
2023-05-04T21:57:25.978Z,7.57
2023-05-04T21:59:53.590Z,6.00
2023-05-04T22:02:21.046Z,6.60
2023-05-04T22:04:48.785Z,6.38
2023-05-04T22:07:16.652Z,6.18
2023-05-04T22:09:44.188Z,5.32
2023-05-04T22:12:11.824Z,6.07
2023-05-04T22:14:41.155Z,5.35
2023-05-04T22:17:09.849Z,5.20
2023-05-04T22:19:38.559Z,5.78
2023-05-04T22:22:06.462Z,5.53
2023-05-04T22:24:34.339Z,4.70
2023-05-04T22:27:02.044Z,3.70
2023-05-04T22:29:29.576Z,4.22
2023-05-04T22:31:57.059Z,3.38
2023-05-04T22:34:24.704Z,2.70
2023-05-04T22:36:52.325Z,2.33
2023-05-04T22:39:19.795Z,2.60
2023-05-04T22:41:47.641Z,2.58
2023-05-04T22:44:15.056Z,2.55
2023-05-04T22:46:42.445Z,2.42
2023-05-04T22:49:10.071Z,2.65
2023-05-04T22:51:38.044Z,2.80
2023-05-04T22:54:05.636Z,3.70
2023-05-04T22:56:33.171Z,2.30
2023-05-04T22:59:03.699Z,3.22
2023-05-04T23:01:32.463Z,2.92
2023-05-04T23:03:59.877Z,2.47
2023-05-04T23:06:28.479Z,3.33
2023-05-04T23:08:55.935Z,2.90
2023-05-04T23:11:24.014Z,2.80
2023-05-04T23:13:51.499Z,2.97
2023-05-04T23:16:19.172Z,3.03
2023-05-04T23:18:48.733Z,3.03
2023-05-04T23:21:16.184Z,3.42
2023-05-04T23:23:43.555Z,3.10
2023-05-04T23:26:11.032Z,2.50
2023-05-04T23:28:38.625Z,2.55
2023-05-04T23:31:06.078Z,2.50
2023-05-04T23:33:33.636Z,2.60
2023-05-04T23:36:01.248Z,2.50
2023-05-04T23:38:28.962Z,2.53
2023-05-04T23:40:56.820Z,2.53
2023-05-04T23:43:24.332Z,2.65
2023-05-04T23:46:00.010Z,2.60
2023-05-04T23:48:28.960Z,2.50
2023-05-04T23:51:03.752Z,3.00
2023-05-04T23:53:31.867Z,2.80
2023-05-04T23:56:03.542Z,2.53
2023-05-04T23:58:32.939Z,2.60
